Peotone Weather
Station Historical Data
 
Daily Summary for October 25, 2014 Units:  English    Metric   Both
« Previous Day
Next Day »
Daily Weekly Monthly Yearly Custom
  Current: High: Low: Average:
Temperature: 63.0 °F 71.8 °F 52.3 °F 60.9 °F
Dew Point: 37.7 °F 57.9 °F 35.9 °F 49.9 °F
Humidity: 39% 96% 27% 73%
Wind Speed: 3.4mph 18.4mph 0.0mph 6.4mph
Wind Gust: 5.8mph 23.0mph - -
WindWNW - - West
Pressure: 29.92 in 29.96 in 29.90 in -
Precipitation: 0.00 in      
Historical Graphs
 
 
Tabular Data for October 25, 2014
Time Temperature Dew Point Pressure Wind Wind Speed Wind Gust Humidity Rainfall Rate (Hourly) solar Conditions
00:01 57.4 °F 53.2 °F 29.93 in SSW 3.4 mph 5.8 mph 86% 0.00 in 0.00 W/m2
00:06 57.4 °F 53.2 °F 29.93 in SSW 2.3 mph 5.8 mph 86% 0.00 in 0.00 W/m2
00:11 57.4 °F 53.2 °F 29.93 in SSW 1.1 mph 6.9 mph 86% 0.00 in 0.00 W/m2
00:16 57.4 °F 53.2 °F 29.93 in SSW 1.1 mph 2.3 mph 86% 0.00 in 0.00 W/m2
00:21 57.4 °F 53.6 °F 29.93 in SSW 1.1 mph 2.3 mph 87% 0.00 in 0.00 W/m2
00:26 57.4 °F 53.6 °F 29.93 in Calm   3.4 mph 87% 0.00 in 0.00 W/m2
00:31 57.4 °F 53.6 °F 29.93 in SSW 1.1 mph 4.6 mph 87% 0.00 in 0.00 W/m2
00:36 57.3 °F 53.5 °F 29.92 in SSW 4.6 mph 4.6 mph 87% 0.00 in 0.00 W/m2
00:41 57.3 °F 53.2 °F 29.93 in Calm   2.3 mph 86% 0.00 in 0.00 W/m2
00:47 57.1 °F 53.0 °F 29.92 in SSW 4.6 mph 4.6 mph 86% 0.00 in 0.00 W/m2
00:52 57.0 °F 53.2 °F 29.92 in SSW 2.3 mph 2.3 mph 87% 0.00 in 0.00 W/m2
00:57 56.9 °F 52.8 °F 29.92 in SSW 2.3 mph 3.4 mph 86% 0.00 in 0.00 W/m2
01:02 56.8 °F 52.7 °F 29.92 in Calm   1.1 mph 86% 0.00 in 0.00 W/m2
01:07 56.6 °F 52.5 °F 29.92 in Calm   2.3 mph 86% 0.00 in 0.00 W/m2
01:12 56.4 °F 52.3 °F 29.92 in Calm   1.1 mph 86% 0.00 in 0.00 W/m2
01:17 56.2 °F 52.1 °F 29.92 in Calm     86% 0.00 in 0.00 W/m2
01:22 56.0 °F 51.9 °F 29.92 in Calm     86% 0.00 in 0.00 W/m2
01:28 55.9 °F 51.8 °F 29.92 in Calm     86% 0.00 in 0.00 W/m2
01:33 55.7 °F 51.6 °F 29.92 in Calm     86% 0.00 in 0.00 W/m2
01:38 55.6 °F 51.5 °F 29.92 in Calm   1.1 mph 86% 0.00 in 0.00 W/m2
01:43 55.4 °F 51.3 °F 29.92 in Calm     86% 0.00 in 0.00 W/m2
01:48 55.3 °F 51.5 °F 29.92 in Calm   1.1 mph 87% 0.00 in 0.00 W/m2
01:53 55.1 °F 51.0 °F 29.92 in SSW 1.1 mph 2.3 mph 86% 0.00 in 0.00 W/m2
01:58 55.0 °F 51.2 °F 29.92 in SSW 1.1 mph 3.4 mph 87% 0.00 in 0.00 W/m2
02:03 54.9 °F 51.1 °F 29.92 in SSW 2.3 mph 2.3 mph 87% 0.00 in 0.00 W/m2
02:09 54.8 °F 51.0 °F 29.92 in Calm   1.1 mph 87% 0.00 in 0.00 W/m2
02:14 54.7 °F 51.2 °F 29.92 in Calm   2.3 mph 88% 0.00 in 0.00 W/m2
02:19 54.6 °F 51.1 °F 29.91 in Calm   3.4 mph 88% 0.00 in 0.00 W/m2
02:24 54.5 °F 51.0 °F 29.91 in Calm   3.4 mph 88% 0.00 in 0.00 W/m2
02:29 54.4 °F 50.9 °F 29.91 in SSW 1.1 mph 2.3 mph 88% 0.00 in 0.00 W/m2
02:34 54.4 °F 50.9 °F 29.91 in Calm   3.4 mph 88% 0.00 in 0.00 W/m2
02:39 54.3 °F 51.1 °F 29.90 in SSW 1.1 mph 4.6 mph 89% 0.00 in 0.00 W/m2
02:44 54.3 °F 51.1 °F 29.90 in SSW 3.4 mph 4.6 mph 89% 0.00 in 0.00 W/m2
02:49 54.3 °F 51.1 °F 29.90 in SSW 1.1 mph 4.6 mph 89% 0.00 in 0.00 W/m2
02:54 54.2 °F 51.3 °F 29.90 in Calm   1.1 mph 90% 0.00 in 0.00 W/m2
02:59 54.2 °F 51.3 °F 29.90 in SSW 2.3 mph 3.4 mph 90% 0.00 in 0.00 W/m2
03:05 54.1 °F 51.2 °F 29.90 in SSW 5.8 mph 5.8 mph 90% 0.00 in 0.00 W/m2
03:10 54.0 °F 51.1 °F 29.90 in Calm   5.8 mph 90% 0.00 in 0.00 W/m2
03:15 53.9 °F 51.0 °F 29.90 in Calm   2.3 mph 90% 0.00 in 0.00 W/m2
03:20 53.8 °F 50.9 °F 29.90 in SSW 1.1 mph 2.3 mph 90% 0.00 in 0.00 W/m2
03:25 53.7 °F 50.8 °F 29.90 in SSW 2.3 mph 4.6 mph 90% 0.00 in 0.00 W/m2
03:30 53.6 °F 50.7 °F 29.90 in Calm   3.4 mph 90% 0.00 in 0.00 W/m2
03:35 53.5 °F 50.6 °F 29.90 in SSW 2.3 mph 4.6 mph 90% 0.00 in 0.00 W/m2
03:40 53.4 °F 50.5 °F 29.90 in SSW 2.3 mph 3.4 mph 90% 0.00 in 0.00 W/m2
03:46 53.3 °F 50.5 °F 29.90 in SSW 2.3 mph 3.4 mph 90% 0.00 in 0.00 W/m2
03:51 53.2 °F 50.3 °F 29.90 in SSW 3.4 mph 5.8 mph 90% 0.00 in 0.00 W/m2
03:56 53.2 °F 50.7 °F 29.91 in SSW 2.3 mph 5.8 mph 91% 0.00 in 0.00 W/m2
04:01 53.3 °F 50.7 °F 29.91 in SW 5.8 mph 8.1 mph 91% 0.00 in 0.00 W/m2
04:06 53.5 °F 51.2 °F 29.91 in SW 4.6 mph 5.8 mph 92% 0.00 in 0.00 W/m2
04:11 53.6 °F 51.3 °F 29.92 in SW 4.6 mph 6.9 mph 92% 0.00 in 0.00 W/m2
04:16 53.7 °F 51.4 °F 29.92 in SW 3.4 mph 5.8 mph 92% 0.00 in 0.00 W/m2
04:21 53.8 °F 51.5 °F 29.92 in SW 2.3 mph 5.8 mph 92% 0.00 in 0.00 W/m2
04:26 53.7 °F 51.4 °F 29.92 in SW 5.8 mph 5.8 mph 92% 0.00 in 0.00 W/m2
04:31 53.8 °F 51.5 °F 29.91 in SW 2.3 mph 5.8 mph 92% 0.00 in 0.00 W/m2
04:36 53.7 °F 51.4 °F 29.91 in SW 1.1 mph 1.1 mph 92% 0.00 in 0.00 W/m2
04:41 53.7 °F 51.4 °F 29.91 in SW 3.4 mph 3.4 mph 92% 0.00 in 0.00 W/m2
04:46 53.6 °F 51.3 °F 29.91 in SW 4.6 mph 4.6 mph 92% 0.00 in 0.00 W/m2
04:51 53.6 °F 51.3 °F 29.91 in SW 2.3 mph 3.4 mph 92% 0.00 in 0.00 W/m2
04:56 53.5 °F 51.2 °F 29.91 in SW 2.3 mph 3.4 mph 92% 0.00 in 0.00 W/m2
05:02 53.5 °F 51.2 °F 29.91 in SW 2.3 mph 5.8 mph 92% 0.00 in 0.00 W/m2
05:07 53.4 °F 51.1 °F 29.91 in SW 4.6 mph 4.6 mph 92% 0.00 in 0.00 W/m2
05:12 53.4 °F 51.1 °F 29.91 in SW 1.1 mph 5.8 mph 92% 0.00 in 0.00 W/m2
05:17 53.3 °F 51.0 °F 29.92 in SW 4.6 mph 4.6 mph 92% 0.00 in 0.00 W/m2
05:22 53.2 °F 50.9 °F 29.92 in SW 2.3 mph 3.4 mph 92% 0.00 in 0.00 W/m2
05:27 53.2 °F 50.9 °F 29.92 in SW 2.3 mph 4.6 mph 92% 0.00 in 0.00 W/m2
05:32 53.1 °F 50.8 °F 29.92 in SW 2.3 mph 5.8 mph 92% 0.00 in 0.00 W/m2
05:38 53.0 °F 50.7 °F 29.92 in SW 5.8 mph 6.9 mph 92% 0.00 in 0.00 W/m2
05:43 52.8 °F 50.5 °F 29.92 in SW 3.4 mph 4.6 mph 92% 0.00 in 0.00 W/m2
05:48 52.7 °F 50.5 °F 29.92 in SW 3.4 mph 5.8 mph 92% 0.00 in 0.00 W/m2
05:53 52.6 °F 50.3 °F 29.93 in SW 3.4 mph 5.8 mph 92% 0.00 in 0.00 W/m2
05:58 52.5 °F 50.2 °F 29.93 in SW 3.4 mph 5.8 mph 92% 0.00 in 0.00 W/m2
06:03 52.4 °F 50.2 °F 29.93 in SW 4.6 mph 4.6 mph 92% 0.00 in 0.00 W/m2
06:08 52.4 °F 50.2 °F 29.93 in SW 5.8 mph 5.8 mph 92% 0.00 in 0.00 W/m2
06:13 52.3 °F 50.0 °F 29.93 in SW 3.4 mph 8.1 mph 92% 0.00 in 0.00 W/m2
06:18 52.5 °F 50.5 °F 29.93 in WSW 4.6 mph 8.1 mph 93% 0.00 in 0.00 W/m2
06:23 52.8 °F 50.8 °F 29.93 in WSW 5.8 mph 8.1 mph 93% 0.00 in 0.00 W/m2
06:29 53.1 °F 51.4 °F 29.93 in WSW 4.6 mph 9.2 mph 94% 0.00 in 0.00 W/m2
06:34 53.4 °F 51.7 °F 29.92 in West 5.8 mph 8.1 mph 94% 0.00 in 0.00 W/m2
06:39 53.6 °F 51.9 °F 29.92 in West 5.8 mph 8.1 mph 94% 0.00 in 0.00 W/m2
06:44 53.9 °F 52.2 °F 29.92 in West 4.6 mph 9.2 mph 94% 0.00 in 0.00 W/m2
06:49 54.0 °F 52.3 °F 29.92 in West 3.4 mph 4.6 mph 94% 0.00 in 0.00 W/m2
06:54 54.2 °F 52.5 °F 29.92 in West 3.4 mph 5.8 mph 94% 0.00 in 0.00 W/m2
06:59 54.3 °F 52.9 °F 29.92 in West 4.6 mph 5.8 mph 95% 0.00 in 0.00 W/m2
07:05 54.4 °F 53.0 °F 29.93 in West 6.9 mph 8.1 mph 95% 0.00 in 0.00 W/m2
07:10 54.6 °F 53.2 °F 29.93 in West 5.8 mph 9.2 mph 95% 0.00 in 0.00 W/m2
07:15 54.8 °F 53.4 °F 29.93 in West 5.8 mph 8.1 mph 95% 0.00 in 0.00 W/m2
07:20 54.8 °F 53.4 °F 29.93 in West 6.9 mph 9.2 mph 95% 0.00 in 0.00 W/m2
07:25 54.9 °F 53.5 °F 29.93 in WNW 5.8 mph 9.2 mph 95% 0.00 in 0.00 W/m2
07:30 55.0 °F 53.6 °F 29.93 in WNW 5.8 mph 10.3 mph 95% 0.00 in 0.00 W/m2
07:35 55.1 °F 53.7 °F 29.94 in WNW 9.2 mph 10.3 mph 95% 0.00 in 0.00 W/m2
07:40 55.1 °F 53.7 °F 29.94 in NW 4.6 mph 8.1 mph 95% 0.00 in 5.00 W/m2
07:45 55.2 °F 53.8 °F 29.94 in NW 5.8 mph 8.1 mph 95% 0.00 in 11.00 W/m2
07:50 55.2 °F 53.8 °F 29.94 in NW 4.6 mph 6.9 mph 95% 0.00 in 21.00 W/m2
07:56 55.3 °F 53.9 °F 29.94 in NW 2.3 mph 5.8 mph 95% 0.00 in 23.00 W/m2
08:01 55.3 °F 53.9 °F 29.94 in NW 2.3 mph 6.9 mph 95% 0.00 in 30.00 W/m2
08:06 55.4 °F 54.0 °F 29.93 in NW 2.3 mph 8.1 mph 95% 0.00 in 39.00 W/m2
08:11 55.5 °F 54.1 °F 29.93 in NW 4.6 mph 6.9 mph 95% 0.00 in 58.00 W/m2
08:16 55.6 °F 54.2 °F 29.93 in NW 5.8 mph 5.8 mph 95% 0.00 in 53.00 W/m2
08:21 55.6 °F 54.2 °F 29.94 in NW 4.6 mph 4.6 mph 95% 0.00 in 51.00 W/m2
08:26 55.7 °F 54.3 °F 29.94 in WNW 3.4 mph 3.4 mph 95% 0.00 in 67.00 W/m2
08:31 55.8 °F 54.4 °F 29.93 in WNW 3.4 mph 3.4 mph 95% 0.00 in 70.00 W/m2
08:36 55.9 °F 54.8 °F 29.94 in WNW 3.4 mph 9.2 mph 96% 0.00 in 76.00 W/m2
08:42 56.0 °F 54.9 °F 29.94 in West 3.4 mph 5.8 mph 96% 0.00 in 98.00 W/m2
08:47 56.3 °F 55.2 °F 29.94 in West 5.8 mph 6.9 mph 96% 0.00 in 91.00 W/m2
08:52 56.5 °F 55.4 °F 29.94 in West 6.9 mph 9.2 mph 96% 0.00 in 98.00 W/m2
08:57 56.7 °F 55.6 °F 29.95 in WNW 6.9 mph 9.2 mph 96% 0.00 in 69.00 W/m2
09:02 56.8 °F 55.4 °F 29.94 in WNW 5.8 mph 6.9 mph 95% 0.00 in 118.00 W/m2
09:07 56.9 °F 55.5 °F 29.94 in West 8.1 mph 12.6 mph 95% 0.00 in 114.00 W/m2
09:12 57.1 °F 55.7 °F 29.95 in West 11.5 mph 18.4 mph 95% 0.00 in 111.00 W/m2
09:17 57.3 °F 55.9 °F 29.95 in West 8.1 mph 11.5 mph 95% 0.00 in 239.00 W/m2
09:23 57.5 °F 56.1 °F 29.95 in West 9.2 mph 9.2 mph 95% 0.00 in 156.00 W/m2
09:28 57.7 °F 56.3 °F 29.95 in West 6.9 mph 11.5 mph 95% 0.00 in 195.00 W/m2
09:33 58.1 °F 56.4 °F 29.95 in West 9.2 mph 13.8 mph 94% 0.00 in 200.00 W/m2
09:38 58.4 °F 56.7 °F 29.95 in West 9.2 mph 11.5 mph 94% 0.00 in 165.00 W/m2
09:43 58.5 °F 56.5 °F 29.95 in West 12.6 mph 12.6 mph 93% 0.00 in 60.00 W/m2
09:48 58.5 °F 56.5 °F 29.95 in WNW 6.9 mph 11.5 mph 93% 0.00 in 84.00 W/m2
09:53 58.8 °F 56.8 °F 29.95 in West 5.8 mph 8.1 mph 93% 0.00 in 105.00 W/m2
09:58 59.1 °F 56.8 °F 29.95 in West 5.8 mph 13.8 mph 92% 0.00 in 98.00 W/m2
10:03 59.2 °F 56.9 °F 29.95 in West 6.9 mph 12.6 mph 92% 0.00 in 111.00 W/m2
10:08 59.8 °F 57.5 °F 29.95 in NW 9.2 mph 10.3 mph 92% 0.00 in 174.00 W/m2
10:13 60.0 °F 57.4 °F 29.95 in WSW 12.6 mph 14.9 mph 91% 0.00 in 230.00 W/m2
10:18 60.4 °F 57.5 °F 29.94 in West 14.9 mph 14.9 mph 90% 0.00 in 246.00 W/m2
10:24 60.5 °F 56.9 °F 29.95 in WNW 11.5 mph 13.8 mph 88% 0.00 in 148.00 W/m2
10:29 60.5 °F 56.9 °F 29.95 in WSW 12.6 mph 16.1 mph 88% 0.00 in 121.00 W/m2
10:34 60.6 °F 57.0 °F 29.95 in WSW 10.3 mph 16.1 mph 88% 0.00 in 109.00 W/m2
10:39 60.8 °F 56.9 °F 29.95 in West 6.9 mph 11.5 mph 87% 0.00 in 121.00 W/m2
10:44 61.4 °F 57.5 °F 29.95 in NW 12.6 mph 14.9 mph 87% 0.00 in 76.00 W/m2
10:49 61.7 °F 57.2 °F 29.96 in WNW 13.8 mph 16.1 mph 85% 0.00 in 162.00 W/m2
10:54 61.8 °F 57.2 °F 29.95 in NW 11.5 mph 14.9 mph 85% 0.00 in 72.00 W/m2
10:59 62.2 °F 57.3 °F 29.95 in WNW 10.3 mph 12.6 mph 84% 0.00 in 67.00 W/m2
11:05 63.0 °F 57.8 °F 29.96 in NW 9.2 mph 13.8 mph 83% 0.00 in 70.00 W/m2
11:10 63.7 °F 57.8 °F 29.96 in NW 8.1 mph 13.8 mph 81% 0.00 in 65.00 W/m2
11:15 63.8 °F 57.9 °F 29.96 in WNW 6.9 mph 12.6 mph 81% 0.00 in 69.00 W/m2
11:20 64.3 °F 57.7 °F 29.96 in WSW 2.3 mph 12.6 mph 79% 0.00 in 76.00 W/m2
11:25 64.7 °F 57.7 °F 29.96 in NW 9.2 mph 14.9 mph 78% 0.00 in 144.00 W/m2
11:30 64.9 °F 57.5 °F 29.96 in NW 10.3 mph 16.1 mph 77% 0.00 in 272.00 W/m2
11:35 64.7 °F 56.6 °F 29.96 in WNW 10.3 mph 19.5 mph 75% 0.00 in 540.00 W/m2
11:40 64.8 °F 56.3 °F 29.96 in NW 11.5 mph 20.7 mph 74% 0.00 in 545.00 W/m2
11:45 65.2 °F 56.7 °F 29.96 in WNW 10.3 mph 16.1 mph 74% 0.00 in 543.00 W/m2
11:50 65.5 °F 56.6 °F 29.96 in West 12.6 mph 13.8 mph 73% 0.00 in 554.00 W/m2
11:55 65.9 °F 57.0 °F 29.96 in NW 6.9 mph 13.8 mph 73% 0.00 in 554.00 W/m2
12:00 66.6 °F 57.3 °F 29.96 in WNW 9.2 mph 14.9 mph 72% 0.00 in 563.00 W/m2
12:05 66.5 °F 56.4 °F 29.95 in NW 6.9 mph 13.8 mph 70% 0.00 in 568.00 W/m2
12:10 67.0 °F 56.5 °F 29.95 in NW 9.2 mph 14.9 mph 69% 0.00 in 148.00 W/m2
12:16 67.3 °F 56.0 °F 29.95 in WNW 9.2 mph 11.5 mph 67% 0.00 in 160.00 W/m2
12:21 67.8 °F 53.0 °F 29.95 in WNW 13.8 mph 16.1 mph 59% 0.00 in 418.00 W/m2
12:26 67.8 °F 51.1 °F 29.95 in WNW 8.1 mph 17.2 mph 55% 0.00 in 53.00 W/m2
12:31 68.1 °F 52.3 °F 29.95 in NNW 5.8 mph 16.1 mph 57% 0.00 in 113.00 W/m2
12:36 68.5 °F 54.5 °F 29.95 in NW 5.8 mph 12.6 mph 61% 0.00 in 88.00 W/m2
12:41 68.4 °F 53.1 °F 29.95 in WNW 12.6 mph 19.5 mph 58% 0.00 in 69.00 W/m2
12:46 68.5 °F 53.6 °F 29.95 in West 5.8 mph 17.2 mph 59% 0.00 in 338.00 W/m2
12:51 68.6 °F 53.7 °F 29.95 in WNW 10.3 mph 10.3 mph 59% 0.00 in 90.00 W/m2
12:56 68.9 °F 53.1 °F 29.94 in West 5.8 mph 5.8 mph 57% 0.00 in 506.00 W/m2
13:01 69.1 °F 52.8 °F 29.95 in WNW 11.5 mph 14.9 mph 56% 0.00 in 318.00 W/m2
13:06 69.2 °F 52.8 °F 29.95 in NW 8.1 mph 8.1 mph 56% 0.00 in 202.00 W/m2
13:11 69.6 °F 53.2 °F 29.94 in West 11.5 mph 16.1 mph 56% 0.00 in 79.00 W/m2
13:16 69.5 °F 52.2 °F 29.94 in West 10.3 mph 17.2 mph 54% 0.00 in 63.00 W/m2
13:21 69.8 °F 51.9 °F 29.94 in WNW 10.3 mph 16.1 mph 53% 0.00 in 65.00 W/m2
13:26 70.0 °F 51.6 °F 29.94 in NW 16.1 mph 19.5 mph 52% 0.00 in 116.00 W/m2
13:31 69.9 °F 51.0 °F 29.94 in WNW 6.9 mph 16.1 mph 51% 0.00 in 118.00 W/m2
13:36 69.9 °F 50.4 °F 29.94 in West 8.1 mph 18.4 mph 50% 0.00 in 54.00 W/m2
13:41 70.1 °F 49.0 °F 29.93 in NW 12.6 mph 16.1 mph 47% 0.00 in 51.00 W/m2
13:46 70.4 °F 48.1 °F 29.94 in NW 8.1 mph 10.3 mph 45% 0.00 in 51.00 W/m2
13:51 70.4 °F 48.7 °F 29.93 in WNW 8.1 mph 11.5 mph 46% 0.00 in 53.00 W/m2
13:56 70.6 °F 47.7 °F 29.93 in West 12.6 mph 13.8 mph 44% 0.00 in 51.00 W/m2
14:01 70.7 °F 47.1 °F 29.93 in West 11.5 mph 11.5 mph 43% 0.00 in 51.00 W/m2
14:06 70.8 °F 46.0 °F 29.93 in WNW 9.2 mph 14.9 mph 41% 0.00 in 90.00 W/m2
14:11 71.1 °F 46.2 °F 29.93 in West 10.3 mph 11.5 mph 41% 0.00 in 153.00 W/m2
14:16 71.3 °F 43.7 °F 29.93 in WNW 11.5 mph 16.1 mph 37% 0.00 in 77.00 W/m2
14:21 71.3 °F 43.7 °F 29.92 in NNW 14.9 mph 14.9 mph 37% 0.00 in 51.00 W/m2
14:27 71.5 °F 43.9 °F 29.92 in NW 12.6 mph 13.8 mph 37% 0.00 in 49.00 W/m2
14:32 71.5 °F 43.2 °F 29.92 in WNW 18.4 mph 18.4 mph 36% 0.00 in 95.00 W/m2
14:37 71.6 °F 44.0 °F 29.92 in NW 6.9 mph 10.3 mph 37% 0.00 in 84.00 W/m2
14:42 71.8 °F 42.7 °F 29.92 in NW 13.8 mph 23.0 mph 35% 0.00 in 51.00 W/m2
14:47 71.7 °F 42.6 °F 29.92 in WNW 9.2 mph 13.8 mph 35% 0.00 in 132.00 W/m2
14:52 71.7 °F 42.6 °F 29.92 in WNW 16.1 mph 18.4 mph 35% 0.00 in 279.00 W/m2
14:57 71.7 °F 43.3 °F 29.92 in North 12.6 mph 13.8 mph 36% 0.00 in 153.00 W/m2
15:02 71.6 °F 41.0 °F 29.92 in WNW 12.6 mph 23.0 mph 33% 0.00 in 362.00 W/m2
15:07 71.5 °F 42.4 °F 29.92 in NW 12.6 mph 13.8 mph 35% 0.00 in 58.00 W/m2
15:13 71.6 °F 43.3 °F 29.92 in WNW 10.3 mph 11.5 mph 36% 0.00 in 56.00 W/m2
15:18 71.8 °F 42.7 °F 29.91 in WNW 9.2 mph 17.2 mph 35% 0.00 in 44.00 W/m2
15:23 71.7 °F 43.3 °F 29.91 in West 9.2 mph 12.6 mph 36% 0.00 in 46.00 W/m2
15:28 71.7 °F 40.3 °F 29.91 in WNW 14.9 mph 16.1 mph 32% 0.00 in 39.00 W/m2
15:33 71.6 °F 40.2 °F 29.91 in West 9.2 mph 17.2 mph 32% 0.00 in 42.00 W/m2
15:38 71.5 °F 40.1 °F 29.92 in NW 8.1 mph 23.0 mph 32% 0.00 in 40.00 W/m2
15:43 71.6 °F 38.6 °F 29.92 in WNW 11.5 mph 20.7 mph 30% 0.00 in 40.00 W/m2
15:48 71.5 °F 38.5 °F 29.92 in NW 11.5 mph 19.5 mph 30% 0.00 in 47.00 W/m2
15:53 71.6 °F 40.2 °F 29.92 in WNW 9.2 mph 17.2 mph 32% 0.00 in 44.00 W/m2
15:58 71.7 °F 36.9 °F 29.92 in WNW 14.9 mph 23.0 mph 28% 0.00 in 37.00 W/m2
16:04 71.6 °F 35.9 °F 29.91 in WNW 17.2 mph 21.9 mph 27% 0.00 in 32.00 W/m2
16:09 71.6 °F 37.7 °F 29.91 in West 9.2 mph 13.8 mph 29% 0.00 in 30.00 W/m2
16:14 71.6 °F 37.7 °F 29.91 in WNW 10.3 mph 21.9 mph 29% 0.00 in 30.00 W/m2
16:19 71.5 °F 37.6 °F 29.91 in WNW 8.1 mph 16.1 mph 29% 0.00 in 30.00 W/m2
16:24 71.5 °F 38.5 °F 29.91 in WNW 10.3 mph 13.8 mph 30% 0.00 in 28.00 W/m2
16:29 71.5 °F 37.6 °F 29.91 in West 12.6 mph 19.5 mph 29% 0.00 in 28.00 W/m2
16:34 71.3 °F 40.0 °F 29.91 in WNW 8.1 mph 12.6 mph 32% 0.00 in 26.00 W/m2
16:39 71.2 °F 39.9 °F 29.91 in WNW 9.2 mph 14.9 mph 32% 0.00 in 28.00 W/m2
16:44 71.1 °F 39.8 °F 29.91 in WSW 12.6 mph 19.5 mph 32% 0.00 in 26.00 W/m2
16:49 70.8 °F 38.7 °F 29.91 in WNW 10.3 mph 18.4 mph 31% 0.00 in 30.00 W/m2
16:54 70.5 °F 39.2 °F 29.91 in WNW 10.3 mph 16.1 mph 32% 0.00 in 33.00 W/m2
17:00 70.2 °F 39.0 °F 29.91 in WNW 9.2 mph 13.8 mph 32% 0.00 in 26.00 W/m2
17:05 69.9 °F 37.1 °F 29.91 in NW 12.6 mph 14.9 mph 30% 0.00 in 26.00 W/m2
17:10 69.6 °F 37.7 °F 29.91 in WNW 6.9 mph 16.1 mph 31% 0.00 in 21.00 W/m2
17:15 69.5 °F 37.6 °F 29.92 in WNW 5.8 mph 12.6 mph 31% 0.00 in 19.00 W/m2
17:20 69.2 °F 37.3 °F 29.92 in WNW 9.2 mph 14.9 mph 31% 0.00 in 18.00 W/m2
17:25 68.8 °F 37.8 °F 29.92 in WNW 10.3 mph 14.9 mph 32% 0.00 in 16.00 W/m2
17:30 68.4 °F 37.4 °F 29.92 in NW 8.1 mph 13.8 mph 32% 0.00 in 14.00 W/m2
17:35 67.8 °F 37.7 °F 29.92 in WNW 6.9 mph 13.8 mph 33% 0.00 in 12.00 W/m2
17:40 67.2 °F 37.9 °F 29.92 in WNW 8.1 mph 10.3 mph 34% 0.00 in 11.00 W/m2
17:46 66.7 °F 37.5 °F 29.92 in NW 5.8 mph 10.3 mph 34% 0.00 in 7.00 W/m2
17:51 66.2 °F 37.8 °F 29.92 in WNW 5.8 mph 11.5 mph 35% 0.00 in 5.00 W/m2
17:56 65.8 °F 37.4 °F 29.92 in WNW 4.6 mph 14.9 mph 35% 0.00 in 0.00 W/m2
18:01 65.4 °F 37.1 °F 29.91 in WNW 6.9 mph 10.3 mph 35% 0.00 in 0.00 W/m2
18:06 65.0 °F 37.4 °F 29.92 in WNW 5.8 mph 9.2 mph 36% 0.00 in 0.00 W/m2
18:11 64.6 °F 37.1 °F 29.91 in NW 5.8 mph 10.3 mph 36% 0.00 in 0.00 W/m2
18:16 64.1 °F 37.3 °F 29.92 in WNW 4.6 mph 4.6 mph 37% 0.00 in 0.00 W/m2
18:21 63.5 °F 37.5 °F 29.92 in West 6.9 mph 6.9 mph 38% 0.00 in 0.00 W/m2
18:26 63.0 °F 37.7 °F 29.92 in WNW 3.4 mph 5.8 mph 39% 0.00 in 0.00 W/m2
Peotone Weather Data
Compliments of Weather Underground